createdAt,value
2018-12-26T00:00:47.716Z,21.03
2018-12-26T00:03:37.591Z,25.07
2018-12-26T00:06:27.741Z,21.53
2018-12-26T00:09:17.626Z,21.33
2018-12-26T00:12:07.781Z,20.17
2018-12-26T00:14:57.643Z,20.97
2018-12-26T00:17:47.807Z,20.17
2018-12-26T00:20:37.686Z,18.40
2018-12-26T00:23:27.845Z,21.33
2018-12-26T00:26:17.727Z,18.90
2018-12-26T00:29:07.567Z,19.37
2018-12-26T00:31:57.410Z,22.73
2018-12-26T00:34:47.576Z,21.03
2018-12-26T00:37:37.771Z,21.83
2018-12-26T00:40:27.596Z,20.30
2018-12-26T00:42:58.484Z,20.77
2018-12-26T00:45:44.703Z,23.10
2018-12-26T00:48:15.829Z,21.17
2018-12-26T00:51:05.797Z,20.43
2018-12-26T00:53:56.546Z,19.47
2018-12-26T00:56:46.466Z,22.83
2018-12-26T00:59:36.297Z,20.90
2018-12-26T01:02:26.487Z,20.70
2018-12-26T01:05:16.382Z,20.97
2018-12-26T01:08:06.546Z,22.70
2018-12-26T01:10:56.444Z,22.40
2018-12-26T01:13:46.889Z,22.53
2018-12-26T01:16:17.952Z,21.83
2018-12-26T01:19:07.805Z,20.60
2018-12-26T01:21:57.712Z,18.83
2018-12-26T01:24:47.605Z,19.60
2018-12-26T01:27:36.989Z,19.87
2018-12-26T01:30:26.176Z,19.10
2018-12-26T01:33:16.063Z,19.80
2018-12-26T01:36:06.212Z,22.00
2018-12-26T01:38:56.114Z,20.17
2018-12-26T01:41:46.030Z,19.23
2018-12-26T01:44:36.204Z,21.90
2018-12-26T01:47:18.749Z,19.57
2018-12-26T01:50:01.104Z,21.83
2018-12-26T01:52:50.960Z,24.57
2018-12-26T01:55:21.865Z,21.80
2018-12-26T01:58:11.806Z,24.97
2018-12-26T02:00:42.921Z,21.83
2018-12-26T02:03:32.828Z,19.30
2018-12-26T02:06:22.700Z,22.23
2018-12-26T02:12:09.341Z,20.30
2018-12-26T02:14:59.241Z,22.63
2018-12-26T02:17:49.106Z,22.50
2018-12-26T02:20:39.035Z,22.80
2018-12-26T02:23:28.921Z,22.57
2018-12-26T02:26:18.962Z,22.67
2018-12-26T02:29:09.200Z,22.93
2018-12-26T02:31:59.188Z,22.40
2018-12-26T02:34:49.060Z,21.27
2018-12-26T02:37:38.945Z,22.60
2018-12-26T02:40:28.854Z,24.03
2018-12-26T02:43:18.733Z,24.83
2018-12-26T02:46:08.656Z,21.93
2018-12-26T02:48:51.321Z,24.17
2018-12-26T02:51:41.174Z,25.30
2018-12-26T02:54:31.116Z,21.23
2018-12-26T02:57:20.975Z,22.07
2018-12-26T02:59:51.913Z,23.47
2018-12-26T03:02:22.847Z,22.80
2018-12-26T03:04:54.278Z,21.67
2018-12-26T03:07:44.234Z,23.30
2018-12-26T03:10:34.072Z,22.30
2018-12-26T03:13:24.016Z,24.20
2018-12-26T03:16:13.893Z,24.60
2018-12-26T03:19:03.764Z,25.57
2018-12-26T03:21:53.624Z,24.37
2018-12-26T03:24:43.501Z,27.20
2018-12-26T03:27:33.357Z,26.93
2018-12-26T03:30:23.243Z,24.80
2018-12-26T03:33:13.188Z,23.77
2018-12-26T03:36:03.431Z,26.33
2018-12-26T03:38:53.305Z,23.87
2018-12-26T03:41:43.478Z,23.40
2018-12-26T03:44:53.801Z,26.60
2018-12-26T03:48:04.521Z,25.53
2018-12-26T03:50:46.786Z,25.53
2018-12-26T03:53:36.944Z,23.43
2018-12-26T03:56:26.816Z,25.67
2018-12-26T03:59:16.832Z,26.60
2018-12-26T04:02:06.719Z,26.23
2018-12-26T04:04:56.614Z,23.70
2018-12-26T04:07:46.610Z,25.00
2018-12-26T04:10:37.001Z,24.40
2018-12-26T04:13:27.002Z,23.33
2018-12-26T04:16:17.165Z,23.97
2018-12-26T04:19:07.058Z,25.30
2018-12-26T04:22:17.696Z,25.13
2018-12-26T04:25:07.837Z,26.83
2018-12-26T04:27:57.794Z,25.83
2018-12-26T04:30:28.681Z,30.97
2018-12-26T04:33:18.900Z,27.73
2018-12-26T04:36:08.734Z,28.57
2018-12-26T04:38:58.715Z,29.40
2018-12-26T04:41:48.575Z,30.13
2018-12-26T04:44:38.578Z,29.47
2018-12-26T04:47:21.471Z,34.50
2018-12-26T04:50:11.355Z,34.00
2018-12-26T04:53:01.333Z,36.00
2018-12-26T04:55:32.208Z,37.23
2018-12-26T04:58:22.078Z,37.07
2018-12-26T05:01:11.946Z,36.60
2018-12-26T05:04:02.117Z,38.77
2018-12-26T05:06:51.981Z,36.33
2018-12-26T05:09:42.052Z,38.57
2018-12-26T05:12:32.271Z,38.30
2018-12-26T05:15:22.130Z,41.43
2018-12-26T05:18:11.975Z,39.00
2018-12-26T05:21:01.833Z,39.03
2018-12-26T05:23:32.856Z,39.43
2018-12-26T05:26:22.714Z,38.40
2018-12-26T05:29:12.614Z,39.60
2018-12-26T05:32:02.500Z,38.20
2018-12-26T05:34:52.377Z,38.13
2018-12-26T05:37:42.310Z,39.33
2018-12-26T05:40:32.326Z,43.57
2018-12-26T05:43:22.211Z,40.77
2018-12-26T05:46:12.416Z,44.37
2018-12-26T05:48:54.675Z,41.30
2018-12-26T05:51:44.691Z,42.40
2018-12-26T05:54:34.930Z,43.23
2018-12-26T05:57:24.899Z,41.67
2018-12-26T06:00:14.817Z,45.23
2018-12-26T06:02:45.660Z,47.53
2018-12-26T06:05:36.116Z,44.73
2018-12-26T06:08:26.533Z,44.70
2018-12-26T06:11:16.421Z,55.20
2018-12-26T06:14:06.594Z,49.47
2018-12-26T06:16:56.720Z,48.07
2018-12-26T06:19:46.954Z,46.73
2018-12-26T06:22:36.862Z,50.50
2018-12-26T06:25:26.763Z,50.73
2018-12-26T06:28:16.901Z,48.37
2018-12-26T06:31:06.807Z,53.70
2018-12-26T06:33:56.645Z,52.20
2018-12-26T06:36:46.900Z,49.03
2018-12-26T06:39:37.189Z,49.77
2018-12-26T06:42:27.076Z,52.57
2018-12-26T06:44:58.010Z,50.50
2018-12-26T06:47:47.955Z,51.63
2018-12-26T06:50:31.182Z,47.07
2018-12-26T06:53:21.088Z,48.60
2018-12-26T06:56:10.937Z,47.27
2018-12-26T06:59:00.845Z,49.10
2018-12-26T07:01:50.717Z,47.93
2018-12-26T07:04:40.596Z,49.27
2018-12-26T07:07:30.911Z,51.30
2018-12-26T07:10:20.815Z,48.03
2018-12-26T07:13:11.005Z,48.17
2018-12-26T07:16:00.977Z,48.87
2018-12-26T07:18:51.566Z,47.60
2018-12-26T07:21:41.412Z,45.37
2018-12-26T07:24:31.285Z,46.63
2018-12-26T07:27:21.132Z,46.93
2018-12-26T07:30:11.265Z,44.43
2018-12-26T07:32:42.156Z,46.83
2018-12-26T07:35:32.282Z,45.93
2018-12-26T07:38:22.267Z,50.80
2018-12-26T07:41:12.172Z,46.00
2018-12-26T07:43:43.390Z,46.90
2018-12-26T07:46:14.273Z,49.47
2018-12-26T07:48:56.703Z,51.03
2018-12-26T07:51:46.671Z,47.87
2018-12-26T07:54:36.505Z,48.17
2018-12-26T07:57:26.603Z,47.07
2018-12-26T08:00:16.755Z,49.50
2018-12-26T08:03:06.640Z,53.17
2018-12-26T08:05:56.839Z,52.60
2018-12-26T08:08:46.682Z,53.77
2018-12-26T08:11:17.584Z,55.17
2018-12-26T08:14:07.435Z,58.30
2018-12-26T08:16:57.312Z,52.13
2018-12-26T08:19:47.502Z,55.13
2018-12-26T08:22:37.687Z,57.27
2018-12-26T08:25:27.810Z,58.13
2018-12-26T08:28:26.299Z,54.97
2018-12-26T08:31:09.645Z,59.60
2018-12-26T08:33:40.504Z,58.13
2018-12-26T08:36:30.779Z,60.60
2018-12-26T08:39:20.679Z,62.70
2018-12-26T08:42:11.097Z,64.17
2018-12-26T08:45:00.969Z,61.07
2018-12-26T08:47:32.123Z,63.27
2018-12-26T08:50:22.128Z,66.23
2018-12-26T08:53:12.088Z,69.87
2018-12-26T08:55:43.006Z,71.53
2018-12-26T08:58:35.292Z,74.23
2018-12-26T09:01:24.490Z,74.03
2018-12-26T09:04:14.378Z,77.03
2018-12-26T09:07:04.396Z,73.67
2018-12-26T09:09:54.236Z,75.60
2018-12-26T09:12:44.495Z,80.20
2018-12-26T09:15:34.349Z,81.40
2018-12-26T09:18:24.234Z,80.53
2018-12-26T09:21:14.096Z,76.63
2018-12-26T09:23:45.010Z,76.20
2018-12-26T09:26:38.113Z,80.87
2018-12-26T09:29:28.014Z,81.60
2018-12-26T09:32:17.890Z,86.23
2018-12-26T09:35:09.358Z,81.90
2018-12-26T09:37:59.518Z,67.57
2018-12-26T09:40:49.420Z,82.87
2018-12-26T09:43:39.298Z,73.70
2018-12-26T09:46:29.549Z,78.33
2018-12-26T09:49:12.163Z,86.43
2018-12-26T09:51:43.466Z,82.20
2018-12-26T09:54:14.699Z,89.00
2018-12-26T09:57:05.044Z,86.57
2018-12-26T09:59:55.522Z,93.73
2018-12-26T10:02:45.404Z,91.40
2018-12-26T10:05:35.545Z,84.97
2018-12-26T10:08:26.048Z,86.67
2018-12-26T10:11:15.904Z,77.00
2018-12-26T10:14:05.775Z,82.83
2018-12-26T10:16:55.706Z,79.83
2018-12-26T10:19:45.893Z,80.53
2018-12-26T10:22:35.779Z,82.90
2018-12-26T10:25:25.748Z,82.27
2018-12-26T10:28:15.601Z,73.87
2018-12-26T10:31:05.495Z,77.13
2018-12-26T10:33:55.371Z,88.20
2018-12-26T10:36:45.254Z,86.07
2018-12-26T10:39:35.109Z,80.07
2018-12-26T10:42:25.270Z,91.23
2018-12-26T10:45:15.158Z,84.67
2018-12-26T10:47:57.485Z,77.77
2018-12-26T10:50:47.340Z,72.57
2018-12-26T10:53:37.219Z,74.60
2018-12-26T10:56:27.095Z,76.10
2018-12-26T10:59:17.325Z,72.73
2018-12-26T11:02:07.178Z,88.13
2018-12-26T11:04:57.098Z,71.63
2018-12-26T11:07:47.003Z,80.83
2018-12-26T11:10:36.852Z,85.50
2018-12-26T11:13:26.745Z,74.07
2018-12-26T11:16:17.118Z,79.97
2018-12-26T11:19:07.038Z,73.50
2018-12-26T11:21:56.979Z,76.87
2018-12-26T11:24:46.834Z,73.17
2018-12-26T11:27:36.838Z,70.10
2018-12-26T11:30:26.702Z,70.60
2018-12-26T11:33:16.574Z,69.50
2018-12-26T11:36:06.463Z,75.20
2018-12-26T11:38:56.537Z,82.83
2018-12-26T11:41:38.883Z,79.17
2018-12-26T11:44:28.778Z,73.67
2018-12-26T11:47:18.952Z,78.43
2018-12-26T11:50:09.051Z,79.30
2018-12-26T11:52:58.913Z,78.30
2018-12-26T11:55:48.797Z,78.73
2018-12-26T11:58:38.212Z,82.17
2018-12-26T12:01:27.430Z,79.40
2018-12-26T12:04:17.254Z,83.73
2018-12-26T12:07:07.159Z,67.77
2018-12-26T12:09:38.084Z,72.00
2018-12-26T12:12:09.001Z,71.47
2018-12-26T12:14:58.953Z,82.17
2018-12-26T12:17:48.876Z,78.57
2018-12-26T12:20:20.201Z,77.33
2018-12-26T12:23:10.641Z,70.97
2018-12-26T12:26:00.551Z,81.20
2018-12-26T12:28:50.744Z,86.37
2018-12-26T12:31:40.621Z,72.40
2018-12-26T12:34:30.493Z,75.57
2018-12-26T12:37:20.655Z,77.93
2018-12-26T12:40:12.321Z,74.33
2018-12-26T12:42:54.745Z,70.53
2018-12-26T12:45:44.710Z,69.37
2018-12-26T12:48:34.881Z,73.77
2018-12-26T12:51:24.845Z,80.53
2018-12-26T12:54:14.671Z,69.17
2018-12-26T12:57:04.539Z,67.70
2018-12-26T12:59:54.683Z,60.30
2018-12-26T13:02:44.567Z,63.47
2018-12-26T13:05:34.461Z,68.23
2018-12-26T13:08:24.354Z,70.43
2018-12-26T13:11:22.152Z,70.60
2018-12-26T13:14:12.261Z,68.77
2018-12-26T13:17:02.169Z,78.33
2018-12-26T13:19:52.026Z,80.13
2018-12-26T13:22:42.158Z,74.40
2018-12-26T13:25:32.155Z,86.93
2018-12-26T13:28:22.633Z,66.97
2018-12-26T13:31:12.525Z,79.33
2018-12-26T13:34:03.078Z,67.73
2018-12-26T13:36:53.218Z,81.77
2018-12-26T13:39:43.097Z,66.63
2018-12-26T13:42:32.993Z,73.17
2018-12-26T13:45:15.140Z,74.37
2018-12-26T13:48:05.087Z,58.77
2018-12-26T13:50:54.969Z,67.97
2018-12-26T13:53:45.099Z,65.90
2018-12-26T13:56:35.360Z,54.97
2018-12-26T13:59:25.268Z,53.13
2018-12-26T14:02:15.152Z,64.37
2018-12-26T14:05:05.094Z,60.83
2018-12-26T14:07:54.948Z,63.20
2018-12-26T14:10:44.883Z,63.87
2018-12-26T14:13:34.760Z,60.20
2018-12-26T14:16:24.911Z,54.87
2018-12-26T14:19:14.771Z,68.23
2018-12-26T14:22:04.676Z,60.30
2018-12-26T14:24:54.929Z,63.17
2018-12-26T14:27:29.452Z,57.03
2018-12-26T14:30:17.743Z,62.37
2018-12-26T14:33:07.610Z,55.17
2018-12-26T14:35:59.930Z,55.30
2018-12-26T14:38:49.726Z,58.33
2018-12-26T14:41:39.567Z,54.83
2018-12-26T14:44:21.793Z,60.57
2018-12-26T14:47:11.702Z,67.20
2018-12-26T14:50:01.515Z,48.50
2018-12-26T14:52:51.371Z,59.07
2018-12-26T14:55:41.245Z,64.07
2018-12-26T14:58:31.081Z,55.47
2018-12-26T15:01:20.974Z,60.37
2018-12-26T15:04:10.957Z,62.87
2018-12-26T15:07:01.087Z,68.90
2018-12-26T15:09:51.350Z,56.77
2018-12-26T15:12:41.216Z,67.40
2018-12-26T15:15:31.238Z,58.10
2018-12-26T15:18:21.164Z,66.60
2018-12-26T15:21:11.030Z,73.83
2018-12-26T15:24:00.932Z,78.93
2018-12-26T15:26:50.924Z,60.47
2018-12-26T15:29:40.851Z,84.27
2018-12-26T15:32:30.736Z,62.97
2018-12-26T15:35:20.917Z,75.80
2018-12-26T15:38:10.780Z,68.17
2018-12-26T15:41:00.946Z,71.53
2018-12-26T15:43:50.885Z,78.77
2018-12-26T15:46:34.571Z,73.57
2018-12-26T15:49:24.451Z,86.03
2018-12-26T15:52:14.305Z,88.37
2018-12-26T15:55:04.215Z,82.03
2018-12-26T15:57:35.092Z,87.87
2018-12-26T16:00:25.225Z,77.67
2018-12-26T16:03:15.071Z,74.83
2018-12-26T16:06:05.267Z,89.47
2018-12-26T16:08:55.394Z,93.80
2018-12-26T16:11:45.650Z,86.90
2018-12-26T16:14:16.503Z,71.03
2018-12-26T16:16:48.043Z,84.07
2018-12-26T16:19:37.910Z,91.17
2018-12-26T16:22:28.200Z,88.07
2018-12-26T16:25:18.062Z,90.97
2018-12-26T16:28:07.972Z,82.93
2018-12-26T16:30:58.475Z,73.70
2018-12-26T16:33:48.453Z,81.80
2018-12-26T16:36:38.351Z,82.03
2018-12-26T16:39:35.647Z,79.50
2018-12-26T16:42:20.538Z,71.43
2018-12-26T16:44:51.508Z,65.50
2018-12-26T16:47:41.656Z,68.97
2018-12-26T16:50:31.654Z,73.83
2018-12-26T16:53:21.785Z,80.83
2018-12-26T16:56:11.723Z,69.97
2018-12-26T16:59:01.587Z,75.13
2018-12-26T17:01:51.520Z,67.53
2018-12-26T17:04:41.559Z,73.93
2018-12-26T17:07:31.984Z,78.03
2018-12-26T17:13:32.945Z,59.07
2018-12-26T17:16:22.828Z,71.83
2018-12-26T17:19:12.932Z,67.27
2018-12-26T17:22:05.059Z,73.60
2018-12-26T17:24:54.955Z,65.97
2018-12-26T17:27:45.118Z,56.70
2018-12-26T17:31:03.891Z,65.30
2018-12-26T17:33:47.556Z,63.47
2018-12-26T17:39:34.784Z,62.03
2018-12-26T17:42:24.635Z,60.23
2018-12-26T17:45:05.508Z,61.13
2018-12-26T17:47:47.557Z,60.70
2018-12-26T17:50:59.429Z,64.27
2018-12-26T17:54:14.103Z,66.37
2018-12-26T17:57:25.010Z,70.50
2018-12-26T18:00:56.609Z,68.30
2018-12-26T18:03:49.840Z,66.07
2018-12-26T18:06:59.153Z,155.40
2018-12-26T18:10:10.024Z,61.90
2018-12-26T18:13:00.054Z,59.00
2018-12-26T18:15:31.550Z,62.27
2018-12-26T18:18:21.660Z,59.53
2018-12-26T18:21:11.554Z,57.47
2018-12-26T18:24:01.697Z,54.33
2018-12-26T18:26:51.633Z,73.90
2018-12-26T18:29:22.498Z,66.53
2018-12-26T18:32:12.498Z,71.80
2018-12-26T18:35:02.689Z,83.90
2018-12-26T18:37:52.567Z,78.30
2018-12-26T18:40:23.821Z,77.23
2018-12-26T18:43:06.465Z,80.40
2018-12-26T18:45:49.426Z,87.93
2018-12-26T18:48:41.012Z,87.70
2018-12-26T18:51:31.795Z,79.90
2018-12-26T18:54:02.928Z,86.27
2018-12-26T18:56:53.116Z,83.67
2018-12-26T18:59:24.005Z,85.33
2018-12-26T19:01:54.898Z,77.07
2018-12-26T19:04:26.095Z,77.43
2018-12-26T19:07:16.467Z,78.83
2018-12-26T19:13:16.243Z,79.40
2018-12-26T19:16:06.331Z,87.40
2018-12-26T19:18:56.790Z,75.30
2018-12-26T19:21:46.651Z,74.73
2018-12-26T19:24:17.846Z,69.57
2018-12-26T19:26:50.004Z,79.47
2018-12-26T19:29:21.200Z,77.00
2018-12-26T19:31:52.088Z,79.23
2018-12-26T19:34:42.477Z,75.57
2018-12-26T19:37:32.354Z,77.87
2018-12-26T19:40:22.386Z,79.47
2018-12-26T19:43:12.302Z,78.90
2018-12-26T19:46:02.222Z,79.20
2018-12-26T19:48:44.828Z,75.83
2018-12-26T19:51:35.151Z,70.37
2018-12-26T19:54:25.148Z,68.67
2018-12-26T19:57:15.282Z,63.20
2018-12-26T20:00:05.461Z,71.87
2018-12-26T20:02:55.340Z,59.83
2018-12-26T20:05:45.511Z,57.40
2018-12-26T20:08:35.953Z,55.50
2018-12-26T20:11:25.982Z,55.60
2018-12-26T20:13:57.057Z,62.30
2018-12-26T20:16:47.340Z,60.77
2018-12-26T20:19:37.158Z,57.73
2018-12-26T20:22:27.212Z,66.00
2018-12-26T20:25:17.131Z,59.97
2018-12-26T20:28:07.021Z,67.67
2018-12-26T20:30:56.841Z,78.63
2018-12-26T20:34:05.879Z,65.13
2018-12-26T20:36:55.765Z,71.70
2018-12-26T20:39:45.698Z,70.80
2018-12-26T20:42:36.160Z,71.93
2018-12-26T20:45:26.031Z,70.60
2018-12-26T20:48:16.178Z,66.27
2018-12-26T20:50:58.147Z,58.23
2018-12-26T20:53:50.000Z,63.00
2018-12-26T20:56:39.714Z,54.40
2018-12-26T20:59:11.242Z,53.03
2018-12-26T21:01:42.165Z,47.63
2018-12-26T21:04:32.075Z,45.33
2018-12-26T21:07:21.958Z,46.90
2018-12-26T21:10:11.989Z,50.80
2018-12-26T21:13:02.432Z,44.50
2018-12-26T21:15:33.313Z,44.53
2018-12-26T21:18:06.254Z,47.03
2018-12-26T21:20:37.268Z,39.47
2018-12-26T21:23:27.440Z,42.60
2018-12-26T21:26:17.258Z,40.73
2018-12-26T21:29:07.513Z,41.10
2018-12-26T21:31:57.360Z,36.90
2018-12-26T21:34:47.385Z,38.67
2018-12-26T21:37:37.256Z,38.07
2018-12-26T21:40:27.451Z,35.90
2018-12-26T21:43:10.032Z,33.40
2018-12-26T21:45:59.919Z,33.60
2018-12-26T21:48:49.901Z,38.03
2018-12-26T21:51:20.866Z,29.53
2018-12-26T21:54:10.690Z,32.43
2018-12-26T21:56:41.601Z,32.53
2018-12-26T21:59:31.772Z,29.00
2018-12-26T22:02:02.673Z,32.93
2018-12-26T22:04:52.543Z,27.70
2018-12-26T22:07:42.724Z,26.00
2018-12-26T22:10:32.769Z,31.47
2018-12-26T22:13:23.342Z,30.67
2018-12-26T22:16:13.352Z,29.33
2018-12-26T22:19:03.185Z,24.40
2018-12-26T22:21:53.135Z,26.90
2018-12-26T22:24:24.734Z,26.17
2018-12-26T22:27:14.710Z,24.97
2018-12-26T22:30:04.879Z,24.70
2018-12-26T22:32:54.728Z,22.77
2018-12-26T22:35:44.883Z,25.43
2018-12-26T22:38:34.838Z,23.13
2018-12-26T22:41:17.723Z,24.20
2018-12-26T22:44:07.650Z,23.37
2018-12-26T22:46:57.489Z,24.40
2018-12-26T22:49:28.821Z,24.87
2018-12-26T22:52:18.925Z,22.73
2018-12-26T22:55:08.815Z,26.30
2018-12-26T22:57:58.775Z,23.23
2018-12-26T23:00:49.077Z,29.43
2018-12-26T23:03:39.369Z,24.27
2018-12-26T23:06:29.241Z,23.10
2018-12-26T23:09:00.178Z,22.07
2018-12-26T23:11:31.329Z,22.73
2018-12-26T23:14:02.169Z,22.63
2018-12-26T23:16:33.936Z,19.60
2018-12-26T23:19:05.063Z,21.00
2018-12-26T23:21:36.038Z,23.97
2018-12-26T23:24:06.988Z,22.90
2018-12-26T23:26:37.902Z,21.93
2018-12-26T23:29:27.805Z,23.50
2018-12-26T23:32:18.255Z,22.03
2018-12-26T23:34:49.133Z,21.90
2018-12-26T23:37:20.061Z,21.37
2018-12-26T23:40:09.891Z,22.10
2018-12-26T23:42:53.099Z,21.53
2018-12-26T23:45:42.941Z,20.23
2018-12-26T23:48:32.884Z,20.23
2018-12-26T23:51:22.770Z,20.40
2018-12-26T23:54:12.996Z,22.43
2018-12-26T23:57:02.979Z,24.57
2018-12-26T23:59:52.976Z,23.50
